Time;durP1;ratioP1;P1;durP2;ratioP2;P2;SDS_P1;SDS_P2;PMS_P1;PMS_P2;Temp;Humidity;BMP_temperature;BMP_pressure;BME280_temperature;BME280_humidity;BME280_pressure;Samples;Min_cycle;Max_cycle;Signal;HPM_P1;HPM_P2
2024/03/03 00:01:57;;;;;;;2.45;1.92;;;;;;;10.13;100.00;99826.03;5151079;27;20106;-40
2024/03/03 00:04:22;;;;;;;2.95;1.85;;;;;;;10.11;100.00;99815.50;5151662;27;20026;-40
2024/03/03 00:06:48;;;;;;;3.40;2.50;;;;;;;10.10;100.00;99810.31;5140644;27;20022;-40
2024/03/03 00:09:13;;;;;;;3.03;2.20;;;;;;;10.09;100.00;99814.09;5137761;27;20027;-40
2024/03/03 00:11:38;;;;;;;4.75;2.55;;;;;;;10.06;100.00;99799.22;5137471;27;20392;-40
2024/03/03 00:14:04;;;;;;;2.40;1.98;;;;;;;10.04;100.00;99801.34;5136979;27;20048;-40
2024/03/03 00:16:31;;;;;;;3.20;2.40;;;;;;;10.07;100.00;99815.19;5137372;27;20030;-40
2024/03/03 00:18:57;;;;;;;4.85;2.63;;;;;;;10.05;100.00;99822.72;5137069;27;20023;-40
2024/03/03 00:21:23;;;;;;;3.35;2.33;;;;;;;10.05;100.00;99822.72;5137705;27;20030;-40
2024/03/03 00:23:49;;;;;;;1.90;1.58;;;;;;;10.07;100.00;99817.06;5137741;27;20031;-40
2024/03/03 00:26:14;;;;;;;5.13;1.60;;;;;;;10.10;100.00;99819.25;5137180;27;20470;-40
2024/03/03 00:28:39;;;;;;;2.47;1.70;;;;;;;10.12;100.00;99827.94;5137514;27;20066;-40
2024/03/03 00:31:05;;;;;;;3.53;1.70;;;;;;;10.12;100.00;99825.22;5137044;27;20604;-40
2024/03/03 00:33:30;;;;;;;2.60;1.60;;;;;;;10.06;100.00;99810.84;5137293;27;20183;-39
2024/03/03 00:35:56;;;;;;;2.45;1.77;;;;;;;10.11;100.00;99820.91;5136565;27;20027;-39
2024/03/03 00:38:21;;;;;;;2.30;1.87;;;;;;;10.11;100.00;99828.19;5137227;27;20023;-39
2024/03/03 00:40:46;;;;;;;2.50;2.00;;;;;;;10.12;100.00;99825.22;5136517;27;20023;-40
2024/03/03 00:43:12;;;;;;;2.77;2.10;;;;;;;10.05;100.00;99811.09;5137660;27;20019;-40
2024/03/03 00:45:37;;;;;;;3.30;2.03;;;;;;;10.09;100.00;99820.31;5136464;27;20031;-39
2024/03/03 00:48:03;;;;;;;2.60;1.63;;;;;;;10.02;100.00;99812.41;5136977;27;20271;-39
2024/03/03 00:50:28;;;;;;;2.30;1.73;;;;;;;10.05;100.00;99820.03;5136690;27;20019;-39
2024/03/03 00:52:56;;;;;;;2.30;1.60;;;;;;;9.98;100.00;99811.28;5136571;27;20019;-39
2024/03/03 00:55:22;;;;;;;2.45;1.90;;;;;;;10.01;100.00;99821.59;5137133;27;20039;-39
2024/03/03 00:57:48;;;;;;;3.13;2.10;;;;;;;9.98;100.00;99811.28;5136808;27;20046;-40
2024/03/03 01:00:13;;;;;;;2.65;1.80;;;;;;;9.98;100.00;99813.16;5137310;27;20173;-39
2024/03/03 01:02:39;;;;;;;2.17;1.67;;;;;;;9.95;100.00;99819.06;5136118;27;20019;-39
2024/03/03 01:05:05;;;;;;;2.20;1.90;;;;;;;9.95;100.00;99813.66;5136714;27;20106;-39
2024/03/03 01:07:30;;;;;;;2.95;1.70;;;;;;;9.91;100.00;99818.78;5137066;27;20023;-39
2024/03/03 01:09:56;;;;;;;3.27;2.00;;;;;;;9.92;100.00;99816.88;5136309;27;20027;-40
2024/03/03 01:12:21;;;;;;;2.17;1.80;;;;;;;9.88;100.00;99818.44;5136475;27;20027;-40
2024/03/03 01:14:46;;;;;;;1.90;1.45;;;;;;;9.90;100.00;99822.53;5135858;27;20110;-39
2024/03/03 01:17:12;;;;;;;2.67;1.90;;;;;;;9.88;100.00;99810.34;5135202;27;20102;-40
2024/03/03 01:19:37;;;;;;;2.07;1.77;;;;;;;9.85;100.00;99814.34;5135811;27;20072;-39
2024/03/03 01:22:03;;;;;;;2.95;2.00;;;;;;;9.83;100.00;99813.00;5136013;27;20054;-39
2024/03/03 01:24:29;;;;;;;3.90;2.38;;;;;;;9.79;100.00;99804.56;5136277;27;20015;-39
2024/03/03 01:26:54;;;;;;;3.28;2.05;;;;;;;9.79;100.00;99810.78;5136216;27;20031;-40
2024/03/03 01:29:20;;;;;;;4.90;2.10;;;;;;;9.80;100.00;99817.00;5136025;27;20042;-40
2024/03/03 01:31:45;;;;;;;2.87;2.20;;;;;;;9.78;100.00;99825.34;5135599;27;20271;-40
2024/03/03 01:34:10;;;;;;;3.45;1.92;;;;;;;9.76;100.00;99826.66;5136068;27;20106;-40
2024/03/03 01:36:36;;;;;;;2.90;1.92;;;;;;;9.74;100.00;99826.09;5135975;27;20027;-40
2024/03/03 01:39:01;;;;;;;2.10;1.90;;;;;;;9.64;100.00;99824.09;5135787;27;20025;-40
2024/03/03 01:41:27;;;;;;;2.60;1.90;;;;;;;9.69;100.00;99824.16;5135595;27;20454;-40
2024/03/03 01:43:52;;;;;;;3.30;2.25;;;;;;;9.60;100.00;99811.34;5135667;27;20107;-40
2024/03/03 01:46:18;;;;;;;2.73;2.10;;;;;;;9.57;100.00;99812.66;5135284;27;20016;-40
2024/03/03 01:48:43;;;;;;;3.20;2.08;;;;;;;9.55;100.00;99810.19;5136049;27;20336;-40
2024/03/03 01:51:09;;;;;;;3.83;2.40;;;;;;;9.59;100.00;99812.41;5135998;27;20502;-40
2024/03/03 01:53:35;;;;;;;3.05;2.15;;;;;;;9.59;100.00;99813.22;5135402;27;20015;-40
2024/03/03 01:56:02;;;;;;;2.80;2.20;;;;;;;9.50;100.00;99802.03;5135922;27;20039;-40
2024/03/03 01:58:28;;;;;;;2.78;1.90;;;;;;;9.42;100.00;99799.78;5135851;27;20507;-40
2024/03/03 02:00:58;;;;;;;3.53;2.28;;;;;;;9.46;100.00;99808.97;5135294;27;20019;-40
2024/03/03 02:03:24;;;;;;;4.00;2.15;;;;;;;9.41;100.00;99810.78;5135239;27;20019;-40
2024/03/03 02:05:50;;;;;;;3.25;2.30;;;;;;;9.39;100.00;99815.63;5134917;27;20477;-40
2024/03/03 02:08:17;;;;;;;2.13;1.90;;;;;;;9.37;100.00;99802.41;5135445;27;20102;-40
2024/03/03 02:10:43;;;;;;;11.27;3.42;;;;;;;9.39;100.00;99805.66;5134997;27;20362;-40
2024/03/03 02:13:08;;;;;;;4.53;2.28;;;;;;;9.42;100.00;99807.88;5135174;27;20023;-40
2024/03/03 02:15:33;;;;;;;4.00;2.00;;;;;;;9.34;100.00;99797.50;5135186;27;20087;-40
2024/03/03 02:17:59;;;;;;;2.45;1.90;;;;;;;9.40;100.00;99807.28;5135338;27;20047;-40
2024/03/03 02:20:24;;;;;;;5.03;2.23;;;;;;;9.40;100.00;99809.16;5135445;27;20031;-40
2024/03/03 02:22:51;;;;;;;2.83;2.20;;;;;;;9.41;100.00;99806.22;5134847;27;20728;-40
2024/03/03 02:25:17;;;;;;;3.35;1.90;;;;;;;9.44;100.00;99807.63;5135414;27;20023;-40
2024/03/03 02:27:43;;;;;;;4.00;1.90;;;;;;;9.39;100.00;99794.06;5134786;27;20512;-40
2024/03/03 02:30:08;;;;;;;2.85;2.08;;;;;;;9.44;100.00;99802.22;5135089;27;20023;-40
2024/03/03 02:32:34;;;;;;;3.28;2.03;;;;;;;9.44;100.00;99808.44;5135276;27;20034;-40
2024/03/03 02:34:59;;;;;;;3.78;2.63;;;;;;;9.41;100.00;99789.22;5134918;27;20062;-40
2024/03/03 02:37:24;;;;;;;3.20;2.13;;;;;;;9.47;100.00;99807.94;5134441;27;20047;-40
2024/03/03 02:39:50;;;;;;;2.50;2.00;;;;;;;9.48;100.00;99811.47;5134751;27;20347;-40
2024/03/03 02:42:15;;;;;;;3.37;2.30;;;;;;;9.46;100.00;99810.88;5135142;27;20019;-40
2024/03/03 02:44:41;;;;;;;3.17;2.33;;;;;;;9.48;100.00;99804.16;5134999;27;20054;-40
2024/03/03 02:47:06;;;;;;;4.40;2.70;;;;;;;9.47;100.00;99807.94;5134795;27;20026;-40
2024/03/03 02:49:31;;;;;;;3.60;2.38;;;;;;;9.43;100.00;99804.09;5134798;27;20083;-40
2024/03/03 02:51:58;;;;;;;4.07;2.10;;;;;;;9.43;100.00;99806.81;5134260;27;20106;-40
2024/03/03 02:54:23;;;;;;;;;;;;;;;9.50;100.00;99814.72;5134532;28;20078;-40
2024/03/03 02:56:49;;;;;;;4.07;2.17;;;;;;;9.39;100.00;99807.53;5134522;27;19953;-40
2024/03/03 02:59:14;;;;;;;2.83;2.15;;;;;;;9.42;100.00;99815.97;5135323;28;20050;-40
2024/03/03 03:01:40;;;;;;;3.53;2.40;;;;;;;9.41;100.00;99817.00;5134742;28;20019;-40
2024/03/03 03:04:05;;;;;;;4.03;2.43;;;;;;;9.40;100.00;99818.06;5134443;28;20049;-40
2024/03/03 03:06:31;;;;;;;3.03;2.47;;;;;;;9.43;100.00;99812.19;5134412;27;20316;-40
2024/03/03 03:08:56;;;;;;;5.00;2.77;;;;;;;9.43;100.00;99817.59;5134504;28;20028;-40
2024/03/03 03:11:21;;;;;;;2.93;2.13;;;;;;;9.35;100.00;99804.50;5134626;28;20023;-40
2024/03/03 03:13:47;;;;;;;2.90;2.40;;;;;;;9.40;100.00;99811.88;5134839;28;20555;-40
2024/03/03 03:16:12;;;;;;;3.40;2.47;;;;;;;9.35;100.00;99798.31;5134251;28;20276;-40
2024/03/03 03:18:37;;;;;;;4.43;2.57;;;;;;;9.43;100.00;99817.59;5134642;28;20019;-40
2024/03/03 03:21:06;;;;;;;3.72;2.33;;;;;;;9.44;100.00;99804.91;5134816;28;20098;-40
2024/03/03 03:23:32;;;;;;;2.50;2.17;;;;;;;9.45;100.00;99796.56;5134556;28;20034;-40
2024/03/03 03:25:57;;;;;;;3.33;2.30;;;;;;;9.47;100.00;99797.16;5134224;28;20019;-39
2024/03/03 03:28:22;;;;;;;5.50;2.30;;;;;;;9.40;100.00;99784.88;5133917;28;20027;-39
2024/03/03 03:30:48;;;;;;;4.27;2.67;;;;;;;9.47;100.00;99797.16;5134146;28;20272;-39
2024/03/03 03:33:14;;;;;;;3.40;2.30;;;;;;;9.45;100.00;99801.97;5134977;28;20343;-39
2024/03/03 03:35:39;;;;;;;5.25;3.58;;;;;;;9.43;100.00;99798.72;5134262;28;20443;-40
2024/03/03 03:38:04;;;;;;;4.32;2.67;;;;;;;9.43;100.00;99793.31;5134656;28;20023;-40
2024/03/03 03:40:30;;;;;;;4.73;2.40;;;;;;;9.41;100.00;99792.72;5135034;27;20031;-40
2024/03/03 03:42:55;;;;;;;3.67;2.80;;;;;;;9.37;100.00;99797.00;5137955;27;20019;-40
2024/03/03 03:45:20;;;;;;;5.23;2.67;;;;;;;9.39;100.00;99794.88;5138161;27;20245;-40
2024/03/03 03:47:46;;;;;;;3.27;2.67;;;;;;;9.32;100.00;99788.00;5138474;27;20058;-40
2024/03/03 03:50:11;;;;;;;5.27;3.03;;;;;;;9.34;100.00;99793.97;5138263;27;20075;-39
2024/03/03 03:52:37;;;;;;;3.97;2.53;;;;;;;9.27;100.00;99791.44;5138386;27;20094;-39
2024/03/03 03:55:02;;;;;;;3.33;2.65;;;;;;;9.25;100.00;99798.97;5138691;27;20054;-39
2024/03/03 03:57:28;;;;;;;3.60;2.90;;;;;;;9.28;100.00;99814.69;5138279;27;20020;-39
2024/03/03 03:59:54;;;;;;;;;;;;;;;9.35;100.00;99817.19;5137769;27;20031;-39
2024/03/03 04:02:19;;;;;;;5.77;2.83;;;;;;;9.23;100.00;99811.91;5137649;27;19960;-39
2024/03/03 04:04:44;;;;;;;4.40;3.30;;;;;;;9.21;100.00;99814.84;5138104;27;20269;-39
2024/03/03 04:07:10;;;;;;;3.85;3.00;;;;;;;9.15;100.00;99809.63;5137821;27;20442;-40
2024/03/03 04:09:35;;;;;;;3.97;3.27;;;;;;;9.12;100.00;99821.69;5138024;27;20412;-40
2024/03/03 04:12:01;;;;;;;4.93;3.53;;;;;;;9.05;100.00;99814.84;5137180;27;20023;-40
2024/03/03 04:14:26;;;;;;;4.63;3.63;;;;;;;9.08;100.00;99819.75;5137277;27;20019;-39
2024/03/03 04:16:52;;;;;;;3.75;3.30;;;;;;;9.03;100.00;99809.72;5138141;27;20058;-39
2024/03/03 04:19:17;;;;;;;5.43;3.75;;;;;;;9.06;100.00;99833.47;5137582;27;20354;-40
2024/03/03 04:21:43;;;;;;;5.45;3.75;;;;;;;9.12;100.00;99845.16;5137510;27;20360;-39
2024/03/03 04:24:10;;;;;;;7.32;4.10;;;;;;;9.10;100.00;99829.22;5137445;27;20498;-39
2024/03/03 04:26:38;;;;;;;4.82;3.47;;;;;;;9.11;100.00;99830.88;5137085;27;20055;-40
2024/03/03 04:29:03;;;;;;;5.32;3.45;;;;;;;9.07;100.00;99820.81;5137388;27;20389;-38
2024/03/03 04:31:29;;;;;;;5.90;4.20;;;;;;;9.12;100.00;99828.97;5137268;27;20083;-39
2024/03/03 04:33:54;;;;;;;5.88;3.47;;;;;;;9.15;100.00;99829.31;5137585;27;20275;-39
2024/03/03 04:36:20;;;;;;;3.83;3.40;;;;;;;9.13;100.00;99819.84;5136495;27;20030;-39
2024/03/03 04:38:45;;;;;;;4.37;3.60;;;;;;;9.15;100.00;99828.50;5136821;27;20019;-39
2024/03/03 04:41:18;;;;;;;5.13;3.43;;;;;;;9.15;100.00;99831.19;5136800;27;20035;-39
2024/03/03 04:43:45;;;;;;;4.15;3.45;;;;;;;9.10;100.00;99840.03;5136728;27;20023;-40
2024/03/03 04:46:11;;;;;;;4.13;3.72;;;;;;;9.10;100.00;99845.41;5136618;27;20066;-39
2024/03/03 04:48:37;;;;;;;5.43;3.92;;;;;;;9.08;100.00;99844.84;5137523;27;20050;-40
2024/03/03 04:51:04;;;;;;;5.38;3.40;;;;;;;9.08;100.00;99846.72;5136594;27;20461;-39
2024/03/03 04:53:29;;;;;;;5.75;3.65;;;;;;;9.01;100.00;99847.69;5137176;27;20047;-39
2024/03/03 04:55:54;;;;;;;4.07;3.38;;;;;;;9.05;100.00;99858.00;5137127;27;20101;-39
2024/03/03 04:58:20;;;;;;;5.30;4.20;;;;;;;9.02;100.00;99854.72;5137079;27;20023;-44
2024/03/03 05:00:45;;;;;;;4.37;3.83;;;;;;;9.01;100.00;99852.28;5137039;27;20034;-39
2024/03/03 05:03:11;;;;;;;5.53;4.55;;;;;;;8.98;100.00;99859.00;5136477;27;20037;-39
2024/03/03 05:05:36;;;;;;;5.05;4.32;;;;;;;8.97;100.00;99854.63;5136862;27;20057;-39
2024/03/03 05:08:02;;;;;;;5.15;4.13;;;;;;;8.93;100.00;99860.75;5136291;27;20084;-39
2024/03/03 05:10:27;;;;;;;4.90;4.40;;;;;;;8.96;100.00;99874.56;5137083;27;20019;-39
2024/03/03 05:12:53;;;;;;;4.87;4.20;;;;;;;8.96;100.00;99879.16;5136266;27;20019;-39
2024/03/03 05:15:18;;;;;;;5.37;4.43;;;;;;;8.95;100.00;99881.03;5136960;27;20277;-39
2024/03/03 05:17:44;;;;;;;6.78;4.72;;;;;;;8.94;100.00;99879.41;5136155;27;20041;-39
2024/03/03 05:20:09;;;;;;;4.82;4.15;;;;;;;8.94;100.00;99878.59;5135901;27;20029;-39
2024/03/03 05:22:36;;;;;;;5.43;4.63;;;;;;;8.96;100.00;99881.84;5135698;27;20466;-39
2024/03/03 05:25:04;;;;;;;6.47;4.45;;;;;;;8.91;100.00;99873.69;5136760;27;20030;-39
2024/03/03 05:27:30;;;;;;;5.28;4.47;;;;;;;8.95;100.00;99875.66;5135915;27;20058;-39
2024/03/03 05:29:55;;;;;;;6.00;4.85;;;;;;;8.97;100.00;99887.00;5135935;27;20061;-39
2024/03/03 05:32:22;;;;;;;7.30;4.90;;;;;;;8.96;100.00;99887.25;5135548;27;20034;-39
2024/03/03 05:34:47;;;;;;;6.38;5.18;;;;;;;8.95;100.00;99891.81;5135995;27;20020;-39
2024/03/03 05:37:12;;;;;;;5.97;4.82;;;;;;;8.91;100.00;99884.47;5135739;27;20093;-40
2024/03/03 05:39:39;;;;;;;5.60;4.90;;;;;;;8.96;100.00;99890.75;5135484;27;20066;-39
2024/03/03 05:42:04;;;;;;;6.30;5.65;;;;;;;8.96;100.00;99896.16;5135247;27;20751;-39
2024/03/03 05:44:30;;;;;;;6.78;5.20;;;;;;;8.96;100.00;99900.72;5135901;27;20035;-39
2024/03/03 05:46:55;;;;;;;5.97;5.37;;;;;;;8.93;100.00;99904.75;5135834;27;20034;-39
2024/03/03 05:49:21;;;;;;;6.50;5.25;;;;;;;8.94;100.00;99905.56;5135594;27;20034;-39
2024/03/03 05:51:46;;;;;;;8.37;5.93;;;;;;;8.96;100.00;99906.13;5136004;27;20034;-40
2024/03/03 05:54:11;;;;;;;5.85;5.30;;;;;;;8.96;100.00;99916.91;5135786;27;20123;-40
2024/03/03 05:56:37;;;;;;;6.33;5.50;;;;;;;8.96;100.00;99904.25;5136237;27;20455;-39
2024/03/03 05:59:02;;;;;;;6.83;5.63;;;;;;;8.95;100.00;99913.41;5135352;27;20249;-39
2024/03/03 06:01:29;;;;;;;7.15;6.15;;;;;;;8.98;100.00;99920.19;5135254;27;20264;-39
2024/03/03 06:03:54;;;;;;;;;;;;;;;9.06;100.00;99929.75;5135397;27;20434;-40
2024/03/03 06:06:19;;;;;;;6.82;5.68;;;;;;;8.97;100.00;99924.75;5135229;27;19908;-39
2024/03/03 06:08:50;;;;;;;7.43;5.73;;;;;;;8.98;100.00;99925.59;5135200;27;20400;-40
2024/03/03 06:11:16;;;;;;;6.57;5.93;;;;;;;8.98;100.00;99923.72;5135626;27;20458;-40
2024/03/03 06:13:41;;;;;;;;;;;;;;;9.06;100.00;99925.19;5135487;27;20485;-39
2024/03/03 06:16:06;;;;;;;6.50;5.67;;;;;;;8.98;100.00;99918.31;5135012;27;19907;-39
2024/03/03 06:18:32;;;;;;;7.20;6.07;;;;;;;8.99;100.00;99913.75;5135318;27;20332;-39
2024/03/03 06:20:58;;;;;;;6.82;6.05;;;;;;;9.00;100.00;99921.56;5134924;27;20055;-39
2024/03/03 06:23:23;;;;;;;7.10;6.15;;;;;;;8.98;100.00;99914.81;5135753;27;20030;-39
2024/03/03 06:25:50;;;;;;;8.35;6.32;;;;;;;8.96;100.00;99919.59;5134768;27;20027;-39
2024/03/03 06:28:15;;;;;;;6.45;5.80;;;;;;;8.96;100.00;99925.00;5134857;27;20135;-39
2024/03/03 06:30:41;;;;;;;8.48;6.00;;;;;;;8.94;100.00;99933.34;5135306;27;20043;-39
2024/03/03 06:33:06;;;;;;;7.30;6.40;;;;;;;8.93;100.00;99939.78;5134499;27;20023;-40
2024/03/03 06:35:32;;;;;;;8.52;6.05;;;;;;;8.89;100.00;99935.94;5134860;27;20024;-40
2024/03/03 06:37:57;;;;;;;7.40;6.33;;;;;;;8.92;100.00;99950.81;5134739;27;20031;-39
2024/03/03 06:40:22;;;;;;;7.15;6.40;;;;;;;8.83;100.00;99944.97;5134913;27;20026;-39
2024/03/03 06:42:48;;;;;;;8.30;6.85;;;;;;;8.87;100.00;99956.09;5134608;27;20022;-40
2024/03/03 06:45:13;;;;;;;7.75;5.90;;;;;;;8.90;100.00;99963.72;5134947;27;20031;-40
2024/03/03 06:47:38;;;;;;;6.73;6.00;;;;;;;8.88;100.00;99961.28;5135100;27;20443;-40
2024/03/03 06:50:07;;;;;;;6.77;6.07;;;;;;;8.87;100.00;99965.00;5134621;27;20095;-40
2024/03/03 06:52:32;;;;;;;7.80;6.13;;;;;;;8.82;100.00;99964.91;5134531;27;20019;-39
2024/03/03 06:54:59;;;;;;;7.10;6.00;;;;;;;8.91;100.00;99978.84;5134950;28;20366;-40
2024/03/03 06:57:25;;;;;;;7.85;6.15;;;;;;;8.92;100.00;99977.75;5134281;28;20518;-40
2024/03/03 06:59:52;;;;;;;6.80;6.10;;;;;;;8.95;100.00;99985.38;5135099;28;20149;-40
2024/03/03 07:02:18;;;;;;;7.35;6.28;;;;;;;8.97;100.00;99985.94;5134388;28;20030;-39
2024/03/03 07:04:43;;;;;;;7.65;6.05;;;;;;;8.94;100.00;99976.47;5134733;28;20028;-39
2024/03/03 07:07:09;;;;;;;7.65;6.43;;;;;;;9.00;100.00;99993.56;5134663;28;20461;-39
2024/03/03 07:09:36;;;;;;;8.18;6.65;;;;;;;9.01;100.00;99987.94;5134627;28;20115;-39
2024/03/03 07:12:03;;;;;;;9.07;6.47;;;;;;;9.02;100.00;99994.94;5133983;28;20098;-39
2024/03/03 07:14:29;;;;;;;7.47;6.43;;;;;;;8.98;100.00;99995.69;5134083;28;20039;-39
2024/03/03 07:16:55;;;;;;;8.35;6.45;;;;;;;9.06;100.00;100007.97;5136796;27;20085;-39
2024/03/03 07:19:20;;;;;;;8.20;6.95;;;;;;;9.08;100.00;100011.22;5138234;27;20023;-39
2024/03/03 07:21:46;;;;;;;9.80;7.07;;;;;;;9.11;100.00;100010.75;5138404;27;20017;-39
2024/03/03 07:24:11;;;;;;;7.77;6.30;;;;;;;9.09;100.00;100008.31;5138388;27;20064;-39
2024/03/03 07:26:37;;;;;;;8.18;7.22;;;;;;;9.11;100.00;100008.88;5138794;27;20447;-39
2024/03/03 07:29:03;;;;;;;8.18;6.85;;;;;;;9.13;100.00;100014.84;5138000;27;20466;-39
2024/03/03 07:31:29;;;;;;;7.55;6.75;;;;;;;9.16;100.00;100010.84;5138168;27;20027;-39
2024/03/03 07:33:54;;;;;;;;;;;;;;;9.23;100.00;100015.03;5138754;27;20023;-39
2024/03/03 07:36:20;;;;;;;9.65;7.15;;;;;;;9.16;100.00;100022.44;5138141;27;19955;-39
2024/03/03 07:38:45;;;;;;;6.70;6.07;;;;;;;9.21;100.00;100024.41;5138870;27;20034;-39
2024/03/03 07:41:11;;;;;;;8.52;6.78;;;;;;;9.23;100.00;100016.94;5138043;27;20030;-39
2024/03/03 07:43:36;;;;;;;7.30;6.47;;;;;;;9.17;100.00;100007.91;5138793;27;20355;-39
2024/03/03 07:46:02;;;;;;;9.93;6.65;;;;;;;9.27;100.00;100013.50;5137876;27;20477;-39
2024/03/03 07:48:27;;;;;;;13.75;8.98;;;;;;;9.31;100.00;100010.31;5138490;27;20023;-40
2024/03/03 07:50:54;;;;;;;15.23;10.00;;;;;;;9.36;100.00;100005.81;5137913;27;20015;-40
2024/03/03 07:53:19;;;;;;;10.30;8.02;;;;;;;9.38;100.00;100000.19;5137911;27;20057;-40
2024/03/03 07:55:45;;;;;;;9.52;7.20;;;;;;;9.36;100.00;99981.53;5138535;27;20118;-40
2024/03/03 07:58:11;;;;;;;8.63;6.33;;;;;;;9.43;100.00;99995.69;5137754;27;20031;-40
2024/03/03 08:00:36;;;;;;;10.07;7.13;;;;;;;9.44;100.00;99993.81;5137655;27;20261;-40
2024/03/03 08:03:04;;;;;;;10.23;6.65;;;;;;;9.49;100.00;99997.41;5138224;27;20027;-40
2024/03/03 08:05:32;;;;;;;7.13;6.20;;;;;;;9.45;100.00;99974.66;5137812;27;20370;-39
2024/03/03 08:07:57;;;;;;;6.93;6.20;;;;;;;9.52;100.00;99980.75;5138050;27;20019;-39
2024/03/03 08:10:23;;;;;;;7.95;6.43;;;;;;;9.62;100.00;99971.19;5137774;27;20487;-39
2024/03/03 08:12:48;;;;;;;8.23;6.33;;;;;;;9.68;100.00;99959.38;5137461;27;20443;-40
2024/03/03 08:15:13;;;;;;;8.00;6.30;;;;;;;9.67;100.00;99947.78;5137636;27;20028;-40
2024/03/03 08:17:39;;;;;;;7.80;7.00;;;;;;;9.72;100.00;99947.03;5137389;27;20717;-40
2024/03/03 08:20:04;;;;;;;8.27;7.10;;;;;;;9.90;100.00;99973.75;5136356;27;20104;-40
2024/03/03 08:22:30;;;;;;;9.18;6.57;;;;;;;9.97;100.00;99982.50;5137729;27;20257;-40
2024/03/03 08:24:55;;;;;;;8.23;6.07;;;;;;;10.01;100.00;99983.66;5137335;27;20027;-40
2024/03/03 08:27:21;;;;;;;6.78;6.13;;;;;;;10.07;100.00;99998.84;5136646;27;20109;-39
2024/03/03 08:29:46;;;;;;;8.32;5.80;;;;;;;10.12;100.00;99986.50;5137135;27;20030;-39
2024/03/03 08:32:12;;;;;;;9.07;6.65;;;;;;;10.14;100.00;99987.06;5137619;27;20022;-39
2024/03/03 08:34:37;;;;;;;8.57;6.70;;;;;;;10.16;100.00;99982.25;5137602;27;20023;-39
2024/03/03 08:37:03;;;;;;;9.70;6.40;;;;;;;10.23;100.00;99999.06;5137038;27;20043;-40
2024/03/03 08:39:28;;;;;;;7.68;6.40;;;;;;;10.25;100.00;99999.69;5137552;27;20023;-39
2024/03/03 08:41:53;;;;;;;6.30;5.70;;;;;;;10.13;100.00;99983.53;5136657;27;20504;-39
2024/03/03 08:44:19;;;;;;;7.40;6.10;;;;;;;10.21;100.00;100006.63;5137209;27;20031;-39
2024/03/03 08:46:46;;;;;;;7.22;6.53;;;;;;;10.30;100.00;100024.06;5136720;27;20276;-39
2024/03/03 08:49:12;;;;;;;8.55;6.88;;;;;;;10.22;100.00;100017.16;5136654;27;20015;-39
2024/03/03 08:51:39;;;;;;;6.63;6.03;;;;;;;10.30;100.00;100032.19;5136971;27;20139;-44
2024/03/03 08:54:05;;;;;;;8.75;6.38;;;;;;;10.23;100.00;100015.28;5135817;27;20023;-39
2024/03/03 08:56:30;;;;;;;7.07;6.38;;;;;;;10.31;100.00;100034.63;5136689;27;20030;-39
2024/03/03 08:58:55;;;;;;;7.03;6.10;;;;;;;10.33;100.00;100026.25;5136054;27;20061;-39
2024/03/03 09:01:21;;;;;;;7.33;6.63;;;;;;;10.39;100.00;100019.03;5136444;27;20269;-40
2024/03/03 09:03:46;;;;;;;7.10;6.33;;;;;;;10.44;100.00;100021.81;5136730;27;20061;-39
2024/03/03 09:06:12;;;;;;;10.15;5.68;;;;;;;10.41;100.00;100012.34;5136664;27;20031;-39
2024/03/03 09:08:37;;;;;;;7.00;6.30;;;;;;;10.54;100.00;100038.16;5136667;27;20023;-39
2024/03/03 09:11:06;;;;;;;6.47;5.57;;;;;;;10.52;100.00;100027.59;5135972;27;20593;-39
2024/03/03 09:13:33;;;;;;;7.22;6.10;;;;;;;10.65;100.00;100044.53;5136259;27;20027;-39
2024/03/03 09:15:59;;;;;;;5.78;5.10;;;;;;;10.76;100.00;100049.81;5136015;27;20030;-39
2024/03/03 09:18:24;;;;;;;;;;;;;;;10.94;100.00;100067.63;5136302;27;20019;-39
2024/03/03 09:20:49;;;;;;;7.50;5.50;;;;;;;11.15;100.00;100073.28;5136151;27;19910;-39
2024/03/03 09:23:15;;;;;;;8.80;6.33;;;;;;;11.33;100.00;100071.03;5136678;27;20249;-39
2024/03/03 09:25:40;;;;;;;6.50;5.73;;;;;;;11.54;100.00;100074.78;5136039;27;20050;-39
2024/03/03 09:28:06;;;;;;;6.33;5.30;;;;;;;11.64;100.00;100067.81;5136297;27;20765;-39
2024/03/03 09:30:31;;;;;;;6.85;6.07;;;;;;;11.78;100.00;100077.16;5134739;27;20451;-39
2024/03/03 09:32:56;;;;;;;6.27;5.20;;;;;;;11.79;100.00;100059.81;5136210;27;20011;-39
2024/03/03 09:35:22;;;;;;;7.50;5.00;;;;;;;11.88;100.00;100071.03;5135957;27;20023;-39
2024/03/03 09:37:49;;;;;;;6.25;4.10;;;;;;;11.85;100.00;100069.66;5135400;27;20506;-39
2024/03/03 09:40:15;;;;;;;6.07;3.72;;;;;;;11.79;100.00;100065.25;5135532;27;20027;-39
2024/03/03 09:42:44;;;;;;;6.75;4.22;;;;;;;11.82;100.00;100072.91;5135625;27;20027;-39
2024/03/03 09:45:12;;;;;;;6.68;4.30;;;;;;;11.70;100.00;100048.63;5135929;27;20042;-39
2024/03/03 09:47:39;;;;;;;7.82;5.00;;;;;;;11.91;100.00;100060.50;5135591;27;20030;-39
2024/03/03 09:50:14;;;;;;;6.53;4.78;;;;;;;12.01;100.00;100057.88;5135495;27;20030;-39
2024/03/03 09:52:42;;;;;;;7.38;5.80;;;;;;;12.13;100.00;100065.00;5136088;27;20071;-39
2024/03/03 09:55:10;;;;;;;6.93;6.15;;;;;;;12.17;100.00;100060.69;5135968;27;20066;-39
2024/03/03 09:57:37;;;;;;;8.18;5.85;;;;;;;12.23;100.00;100051.53;5135974;27;20367;-40
2024/03/03 10:00:03;;;;;;;9.77;6.32;;;;;;;12.34;100.00;100047.78;5135690;27;20447;-40
2024/03/03 10:02:31;;;;;;;6.57;5.88;;;;;;;12.42;100.00;100047.31;5134959;27;20015;-39
2024/03/03 10:04:57;;;;;;;7.20;6.00;;;;;;;12.46;100.00;100036.75;5135584;27;20034;-39
2024/03/03 10:07:24;;;;;;;7.45;5.95;;;;;;;12.50;100.00;100037.88;5135131;27;20447;-39
2024/03/03 10:10:06;;;;;;;9.18;6.90;;;;;;;12.51;100.00;100032.16;5135476;27;20064;-39
2024/03/03 10:12:33;;;;;;;10.70;7.07;;;;;;;12.42;100.00;100038.34;5134806;27;20023;-40
2024/03/03 10:15:00;;;;;;;8.95;6.57;;;;;;;12.36;100.00;100045.66;5135606;27;20015;-39
2024/03/03 10:17:25;;;;;;;6.97;6.28;;;;;;;12.24;100.00;100050.44;5134732;27;20019;-39
2024/03/03 10:19:51;;;;;;;6.57;5.95;;;;;;;12.22;100.00;100047.19;5135291;27;20075;-39
2024/03/03 10:22:20;;;;;;;6.97;6.07;;;;;;;12.17;100.00;100052.56;5134887;27;20409;-39
2024/03/03 10:24:46;;;;;;;8.18;5.90;;;;;;;12.06;100.00;100044.38;5135841;27;20459;-40
2024/03/03 10:27:16;;;;;;;8.48;6.22;;;;;;;12.14;100.00;100055.78;5134973;27;20076;-40
2024/03/03 10:29:47;;;;;;;6.57;5.93;;;;;;;12.11;100.00;100060.66;5134925;27;20027;-40
2024/03/03 10:32:12;;;;;;;7.10;6.38;;;;;;;12.13;100.00;100056.88;5135183;27;20079;-40
2024/03/03 10:34:38;;;;;;;8.50;6.03;;;;;;;12.17;100.00;100061.50;5134817;27;20023;-40
2024/03/03 10:37:05;;;;;;;7.47;5.57;;;;;;;12.13;100.00;100051.44;5134537;27;20019;-40
2024/03/03 10:39:33;;;;;;;;;;;;;;;12.31;100.00;100056.47;5135272;27;20152;-40
2024/03/03 10:41:58;;;;;;;6.97;5.95;;;;;;;12.21;100.00;100048.25;5134796;27;19904;-40
2024/03/03 10:44:24;;;;;;;7.23;6.33;;;;;;;12.28;100.00;100052.38;5135333;27;20031;-40
2024/03/03 10:46:49;;;;;;;6.50;5.50;;;;;;;12.38;100.00;100063.28;5134657;27;20151;-40
2024/03/03 10:49:17;;;;;;;6.80;5.85;;;;;;;12.45;100.00;100059.53;5135248;27;20252;-40
2024/03/03 10:51:45;;;;;;;6.50;5.60;;;;;;;12.62;100.00;100052.84;5134429;27;20033;-40
2024/03/03 10:54:11;;;;;;;7.50;6.55;;;;;;;12.75;100.00;100056.97;5134188;27;20340;-40
2024/03/03 10:56:38;;;;;;;7.47;6.10;;;;;;;12.84;100.00;100036.41;5134907;28;20031;-40
2024/03/03 10:59:04;;;;;;;8.63;6.70;;;;;;;13.09;100.00;100041.09;5135184;28;20019;-40
2024/03/03 11:01:31;;;;;;;;;;;;;;;13.28;100.00;100038.72;5135215;28;20022;-40
2024/03/03 11:03:59;;;;;;;7.35;5.50;;;;;;;13.22;100.00;100044.41;5135102;27;19907;-40
2024/03/03 11:06:25;;;;;;;7.90;6.30;;;;;;;13.27;100.00;100053.38;5134735;28;20031;-40
2024/03/03 11:08:53;;;;;;;7.40;6.03;;;;;;;13.35;100.00;100058.28;5134813;28;20105;-40
2024/03/03 11:11:24;;;;;;;7.03;5.85;;;;;;;13.40;100.00;100060.19;5134074;28;20067;-40
2024/03/03 11:13:59;;;;;;;7.85;5.75;;;;;;;13.56;100.00;100069.19;5135011;28;20075;-40
2024/03/03 11:16:28;;;;;;;6.10;5.43;;;;;;;13.60;100.00;100056.69;5134060;28;20485;-40
2024/03/03 11:19:02;;;;;;;5.93;5.20;;;;;;;13.71;100.00;100054.78;5134575;28;20023;-39
2024/03/03 11:21:31;;;;;;;6.13;4.80;;;;;;;13.73;100.00;100044.50;5134286;28;20098;-40
2024/03/03 11:24:06;;;;;;;5.70;4.75;;;;;;;13.75;100.00;100053.97;5135116;28;20026;-39